createdAt,value
2018-01-02T00:00:29.536Z,24.20
2018-01-02T00:02:58.620Z,22.10
2018-01-02T00:05:28.398Z,23.40
2018-01-02T00:07:58.359Z,29.50
2018-01-02T00:10:27.349Z,27.30
2018-01-02T00:12:57.194Z,27.43
2018-01-02T00:15:26.153Z,29.10
2018-01-02T00:17:56.474Z,31.03
2018-01-02T00:20:25.421Z,33.20
2018-01-02T00:22:54.592Z,34.33
2018-01-02T00:25:23.566Z,39.97
2018-01-02T00:27:52.874Z,39.47
2018-01-02T00:30:22.318Z,34.80
2018-01-02T00:32:52.262Z,38.27
2018-01-02T00:35:21.285Z,39.27
2018-01-02T00:37:50.594Z,42.80
2018-01-02T00:40:19.731Z,41.93
2018-01-02T00:42:50.927Z,54.67
2018-01-02T00:45:20.016Z,41.53
2018-01-02T00:47:49.734Z,41.80
2018-01-02T00:50:20.567Z,37.90
2018-01-02T00:52:49.655Z,41.50
2018-01-02T00:55:18.635Z,46.87
2018-01-02T01:00:23.781Z,53.77
2018-01-02T01:02:53.684Z,44.67
2018-01-02T01:05:25.660Z,44.57
2018-01-02T01:07:54.884Z,51.47
2018-01-02T01:10:23.849Z,60.63
2018-01-02T01:12:52.819Z,53.40
2018-01-02T01:15:22.535Z,73.23
2018-01-02T01:17:51.624Z,48.33
2018-01-02T01:20:20.506Z,41.17
2018-01-02T01:22:49.568Z,41.27
2018-01-02T01:25:18.466Z,40.33
2018-01-02T01:27:49.196Z,40.50
2018-01-02T01:30:18.292Z,36.23
2018-01-02T01:32:47.141Z,34.30
2018-01-02T01:35:16.121Z,41.77
2018-01-02T01:37:45.330Z,45.77
2018-01-02T01:40:15.194Z,51.27
2018-01-02T01:42:44.141Z,42.23
2018-01-02T01:45:13.380Z,37.50
2018-01-02T01:47:42.474Z,38.90
2018-01-02T01:50:13.999Z,43.40
2018-01-02T01:52:43.031Z,59.70
2018-01-02T01:55:12.044Z,57.53
2018-01-02T01:57:41.098Z,61.83
2018-01-02T02:00:11.563Z,66.30
2018-01-02T02:02:40.938Z,61.40
2018-01-02T02:05:10.978Z,49.70
2018-01-02T02:07:39.949Z,51.30
2018-01-02T02:10:09.087Z,59.63
2018-01-02T02:12:39.856Z,47.60
2018-01-02T02:15:08.821Z,44.67
2018-01-02T02:17:37.822Z,48.03
2018-01-02T02:20:09.913Z,48.17
2018-01-02T02:22:39.848Z,50.90
2018-01-02T02:25:08.847Z,47.83
2018-01-02T02:27:41.415Z,50.77
2018-01-02T02:30:10.625Z,54.53
2018-01-02T02:32:39.630Z,55.70
2018-01-02T02:35:08.756Z,46.77
2018-01-02T02:37:37.731Z,46.10
2018-01-02T02:40:07.821Z,53.97
2018-01-02T02:42:37.700Z,55.07
2018-01-02T02:45:06.740Z,59.60
2018-01-02T02:47:35.851Z,58.50
2018-01-02T02:50:05.725Z,61.00
2018-01-02T02:52:35.450Z,55.50
2018-01-02T02:55:04.345Z,51.83
2018-01-02T02:57:35.057Z,50.30
2018-01-02T03:00:05.152Z,61.00
2018-01-02T03:02:35.217Z,57.93
2018-01-02T03:05:04.317Z,58.93
2018-01-02T03:07:34.057Z,54.77
2018-01-02T03:10:04.746Z,57.67
2018-01-02T03:12:35.392Z,52.80
2018-01-02T03:15:04.421Z,56.47
2018-01-02T03:17:33.387Z,55.37
2018-01-02T03:20:04.222Z,54.50
2018-01-02T03:22:33.309Z,46.87
2018-01-02T03:25:02.305Z,48.30
2018-01-02T03:27:31.300Z,49.43
2018-01-02T03:30:00.253Z,53.43
2018-01-02T03:32:30.959Z,44.80
2018-01-02T03:35:01.009Z,52.77
2018-01-02T03:37:30.914Z,51.23
2018-01-02T03:40:00.414Z,46.07
2018-01-02T03:42:30.344Z,45.83
2018-01-02T03:44:59.334Z,52.03
2018-01-02T03:47:28.533Z,60.97
2018-01-02T03:49:57.733Z,52.60
2018-01-02T03:52:26.722Z,104.77
2018-01-02T03:54:56.524Z,90.80
2018-01-02T03:57:27.124Z,49.37
2018-01-02T03:59:57.713Z,54.77
2018-01-02T04:02:26.657Z,51.43
2018-01-02T04:04:56.638Z,50.77
2018-01-02T04:07:25.602Z,53.63
2018-01-02T04:09:54.591Z,54.47
2018-01-02T04:12:24.549Z,63.40
2018-01-02T04:14:53.526Z,50.20
2018-01-02T04:17:22.595Z,55.87
2018-01-02T04:19:51.485Z,53.17
2018-01-02T04:22:20.381Z,129.50
2018-01-02T04:24:49.375Z,120.23
2018-01-02T04:27:20.256Z,135.17
2018-01-02T04:29:49.304Z,91.47
2018-01-02T04:32:19.100Z,71.13
2018-01-02T04:34:49.854Z,75.03
2018-01-02T04:37:19.060Z,85.80
2018-01-02T04:39:48.051Z,92.50
2018-01-02T04:42:17.893Z,86.97
2018-01-02T04:44:46.958Z,391.97
2018-01-02T04:47:15.952Z,332.77
2018-01-02T04:49:45.049Z,131.93
2018-01-02T04:52:14.047Z,144.40
2018-01-02T04:54:43.132Z,131.57
2018-01-02T04:57:13.047Z,107.57
2018-01-02T04:59:43.781Z,113.17
2018-01-02T05:02:12.777Z,77.20
2018-01-02T05:04:42.947Z,86.83
2018-01-02T05:07:11.876Z,107.43
2018-01-02T05:09:40.825Z,99.07
2018-01-02T05:12:09.965Z,130.20
2018-01-02T05:14:39.052Z,73.03
2018-01-02T05:17:08.785Z,94.33
2018-01-02T05:19:41.421Z,105.33
2018-01-02T05:22:10.356Z,100.20
2018-01-02T05:24:40.681Z,88.43
2018-01-02T05:27:11.316Z,63.33
2018-01-02T05:29:40.229Z,122.97
2018-01-02T05:32:09.123Z,67.23
2018-01-02T05:34:38.230Z,76.67
2018-01-02T05:37:07.184Z,54.97
2018-01-02T05:39:36.189Z,99.60
2018-01-02T05:42:05.277Z,105.13
2018-01-02T05:44:35.069Z,184.63
2018-01-02T05:47:03.978Z,165.83
2018-01-02T05:49:34.713Z,93.40
2018-01-02T05:52:03.707Z,63.57
2018-01-02T05:54:32.942Z,61.33
2018-01-02T05:59:36.526Z,62.60
2018-01-02T06:02:05.412Z,55.43
2018-01-02T06:04:37.072Z,108.40
2018-01-02T06:07:06.260Z,66.90
2018-01-02T06:09:36.262Z,61.07
2018-01-02T06:12:05.104Z,65.43
2018-01-02T06:14:33.996Z,99.63
2018-01-02T06:17:02.825Z,134.43
2018-01-02T06:19:32.796Z,124.20
2018-01-02T06:22:01.617Z,107.37
2018-01-02T06:24:30.721Z,102.43
2018-01-02T06:27:01.561Z,41.57
2018-01-02T06:29:30.545Z,45.50
2018-01-02T06:31:59.550Z,70.13
2018-01-02T06:34:30.197Z,78.93
2018-01-02T06:37:00.951Z,72.27
2018-01-02T06:39:30.049Z,63.40
2018-01-02T06:42:00.036Z,55.80
2018-01-02T06:44:29.885Z,60.53
2018-01-02T06:46:58.973Z,57.63
2018-01-02T06:49:28.953Z,56.30
2018-01-02T06:51:58.779Z,63.90
2018-01-02T06:54:27.824Z,59.07
2018-01-02T06:56:59.849Z,92.23
2018-01-02T06:59:28.947Z,61.50
2018-01-02T07:01:58.804Z,53.17
2018-01-02T07:04:28.012Z,54.40
2018-01-02T07:06:57.147Z,52.17
2018-01-02T07:09:26.096Z,62.17
2018-01-02T07:14:29.577Z,58.13
2018-01-02T07:16:58.615Z,81.47
2018-01-02T07:19:27.786Z,63.75
2018-01-02T07:21:56.799Z,44.43
2018-01-02T07:24:26.743Z,54.80
2018-01-02T07:26:56.577Z,40.93
2018-01-02T07:29:26.563Z,38.03
2018-01-02T07:31:55.655Z,35.30
2018-01-02T07:34:24.624Z,42.93
2018-01-02T07:36:53.464Z,43.40
2018-01-02T07:39:22.316Z,40.37
2018-01-02T07:41:52.147Z,38.60
2018-01-02T07:44:21.672Z,38.73
2018-01-02T07:46:51.259Z,38.30
2018-01-02T07:51:54.711Z,43.40
2018-01-02T07:54:24.676Z,42.40
2018-01-02T07:56:55.690Z,39.60
2018-01-02T07:59:24.774Z,41.60
2018-01-02T08:01:53.870Z,31.80
2018-01-02T08:07:01.088Z,33.70
2018-01-02T08:09:30.265Z,30.80
2018-01-02T08:11:59.480Z,28.87
2018-01-02T08:14:30.182Z,26.20
2018-01-02T08:17:01.201Z,29.33
2018-01-02T08:19:30.698Z,25.83
2018-01-02T08:22:02.769Z,36.40
2018-01-02T08:24:32.443Z,27.67
2018-01-02T08:27:01.568Z,30.07
2018-01-02T08:29:31.388Z,35.67
2018-01-02T08:32:00.651Z,29.57
2018-01-02T08:34:29.676Z,28.53
2018-01-02T08:36:58.595Z,27.97
2018-01-02T08:39:27.807Z,25.60
2018-01-02T08:41:56.803Z,28.90
2018-01-02T08:44:27.513Z,25.03
2018-01-02T08:46:56.485Z,28.73
2018-01-02T08:49:25.486Z,72.03
2018-01-02T08:54:30.270Z,54.70
2018-01-02T08:57:00.447Z,26.80
2018-01-02T08:59:30.361Z,31.13
2018-01-02T09:01:59.285Z,26.60
2018-01-02T09:04:29.261Z,25.30
2018-01-02T09:06:59.336Z,22.93
2018-01-02T09:09:28.283Z,21.27
2018-01-02T09:11:57.274Z,20.17
2018-01-02T09:14:28.823Z,17.53
2018-01-02T09:16:57.784Z,21.63
2018-01-02T09:19:26.920Z,24.40
2018-01-02T09:21:58.109Z,31.07
2018-01-02T09:24:27.974Z,27.77
2018-01-02T09:26:56.972Z,20.97
2018-01-02T09:29:28.636Z,20.50
2018-01-02T09:31:57.824Z,24.97
2018-01-02T09:34:26.793Z,21.43
2018-01-02T09:36:55.918Z,18.80
2018-01-02T09:39:24.872Z,19.53
2018-01-02T09:41:53.905Z,21.70
2018-01-02T09:44:23.000Z,21.60
2018-01-02T09:46:51.891Z,21.80
2018-01-02T09:49:21.226Z,24.43
2018-01-02T09:51:51.210Z,22.03
2018-01-02T09:54:20.103Z,24.87
2018-01-02T09:56:50.016Z,25.03
2018-01-02T09:59:20.650Z,21.40
2018-01-02T10:01:49.743Z,29.13
2018-01-02T10:04:19.455Z,23.13
2018-01-02T10:06:52.429Z,22.10
2018-01-02T10:09:21.334Z,16.53
2018-01-02T10:11:51.288Z,19.37
2018-01-02T10:14:21.273Z,21.73
2018-01-02T10:16:50.160Z,21.47
2018-01-02T10:19:19.247Z,25.07
2018-01-02T10:21:48.258Z,20.20
2018-01-02T10:24:17.168Z,22.53
2018-01-02T10:26:46.056Z,19.60
2018-01-02T10:29:15.852Z,17.00
2018-01-02T10:31:45.768Z,19.43
2018-01-02T10:34:16.731Z,25.10
2018-01-02T10:36:45.800Z,21.40
2018-01-02T10:39:14.791Z,23.20
2018-01-02T10:41:43.841Z,31.20
2018-01-02T10:44:12.920Z,26.33
2018-01-02T10:46:41.870Z,23.53
2018-01-02T10:49:11.006Z,25.97
2018-01-02T10:51:40.780Z,25.17
2018-01-02T10:54:09.700Z,23.73
2018-01-02T10:56:39.895Z,25.33
2018-01-02T10:59:10.581Z,25.50
2018-01-02T11:01:39.564Z,35.87
2018-01-02T11:04:08.511Z,25.90
2018-01-02T11:06:38.596Z,31.07
2018-01-02T11:09:07.449Z,24.97
2018-01-02T11:11:37.175Z,27.73
2018-01-02T11:14:06.060Z,28.37
2018-01-02T11:16:34.894Z,28.80
2018-01-02T11:19:03.746Z,22.57
2018-01-02T11:21:33.554Z,26.43
2018-01-02T11:24:02.385Z,24.40
2018-01-02T11:26:31.305Z,36.37
2018-01-02T11:29:00.114Z,32.00
2018-01-02T11:31:28.922Z,30.47
2018-01-02T11:33:57.782Z,26.33
2018-01-02T11:36:26.577Z,20.43
2018-01-02T11:38:55.427Z,42.43
2018-01-02T11:41:25.133Z,34.70
2018-01-02T11:43:54.008Z,28.00
2018-01-02T11:46:22.845Z,26.17
2018-01-02T11:48:53.288Z,22.47
2018-01-02T11:51:22.112Z,25.90
2018-01-02T11:53:50.976Z,33.13
2018-01-02T11:56:19.800Z,28.03
2018-01-02T11:58:48.615Z,28.33
2018-01-02T12:01:17.435Z,31.87
2018-01-02T12:03:46.371Z,25.63
2018-01-02T12:06:15.204Z,27.20
2018-01-02T12:08:44.074Z,24.70
2018-01-02T12:11:15.341Z,25.80
2018-01-02T12:13:44.234Z,32.20
2018-01-02T12:16:13.038Z,24.23
2018-01-02T12:18:44.533Z,27.30
2018-01-02T12:21:13.359Z,30.93
2018-01-02T12:23:42.229Z,30.23
2018-01-02T12:26:12.898Z,31.00
2018-01-02T12:28:41.778Z,31.37
2018-01-02T12:31:10.678Z,33.40
2018-01-02T12:33:39.523Z,24.67
2018-01-02T12:36:08.360Z,31.00
2018-01-02T12:38:37.189Z,38.27
2018-01-02T12:43:40.342Z,30.23
2018-01-02T12:46:09.182Z,23.93
2018-01-02T12:48:38.048Z,30.43
2018-01-02T12:51:06.871Z,26.50
2018-01-02T12:53:35.671Z,32.67
2018-01-02T12:56:04.548Z,26.80
2018-01-02T12:58:33.362Z,30.73
2018-01-02T13:01:02.190Z,21.20
2018-01-02T13:03:31.025Z,28.43
2018-01-02T13:05:59.802Z,25.87
2018-01-02T13:08:28.626Z,23.50
2018-01-02T13:10:57.570Z,33.57
2018-01-02T13:13:26.405Z,20.63
2018-01-02T13:15:55.226Z,17.83
2018-01-02T13:18:24.926Z,34.63
2018-01-02T13:20:53.767Z,25.97
2018-01-02T13:23:22.605Z,24.87
2018-01-02T13:28:25.610Z,26.57
2018-01-02T13:30:54.854Z,26.43
2018-01-02T13:33:23.809Z,21.17
2018-01-02T13:38:27.594Z,26.27
2018-01-02T13:40:57.489Z,22.63
2018-01-02T13:43:28.138Z,25.67
2018-01-02T13:45:57.011Z,28.80
2018-01-02T13:48:25.788Z,15.00
2018-01-02T13:50:56.327Z,21.17
2018-01-02T13:53:25.176Z,21.27
2018-01-02T13:55:54.062Z,22.10
2018-01-02T13:58:24.663Z,20.83
2018-01-02T14:00:53.513Z,16.87
2018-01-02T14:03:22.327Z,23.70
2018-01-02T14:05:52.090Z,28.67
2018-01-02T14:08:20.896Z,32.03
2018-01-02T14:10:49.811Z,24.10
2018-01-02T14:13:18.695Z,31.93
2018-01-02T14:15:47.581Z,30.30
2018-01-02T14:18:16.490Z,27.67
2018-01-02T14:20:45.462Z,22.53
2018-01-02T14:23:14.429Z,19.13
2018-01-02T14:25:44.017Z,21.73
2018-01-02T14:28:13.123Z,24.83
2018-01-02T14:30:41.956Z,21.90
2018-01-02T14:33:10.825Z,23.13
2018-01-02T14:35:39.664Z,31.23
2018-01-02T14:38:08.466Z,45.03
2018-01-02T14:40:37.319Z,50.73
2018-01-02T14:43:06.232Z,40.63
2018-01-02T14:45:35.129Z,42.23
2018-01-02T14:48:03.962Z,30.87
2018-01-02T14:50:32.774Z,44.27
2018-01-02T14:53:01.853Z,41.60
2018-01-02T14:55:31.945Z,59.63
2018-01-02T14:58:00.843Z,67.83
2018-01-02T15:00:29.740Z,69.73
2018-01-02T15:02:58.561Z,74.67
2018-01-02T15:05:27.500Z,74.20
2018-01-02T15:07:56.393Z,82.57
2018-01-02T15:10:25.328Z,87.37
2018-01-02T15:12:54.983Z,106.33
2018-01-02T15:15:24.262Z,109.83
2018-01-02T15:17:53.282Z,95.47
2018-01-02T15:20:22.373Z,83.03
2018-01-02T15:22:52.428Z,59.23
2018-01-02T15:25:21.430Z,79.50
2018-01-02T15:30:25.044Z,54.83
2018-01-02T15:32:54.584Z,56.47
2018-01-02T15:37:57.729Z,94.37
2018-01-02T15:40:26.755Z,64.27
2018-01-02T15:42:59.642Z,54.70
2018-01-02T15:45:28.635Z,49.90
2018-01-02T15:47:58.682Z,52.73
2018-01-02T15:50:27.787Z,71.63
2018-01-02T15:52:56.745Z,52.50
2018-01-02T15:55:25.837Z,53.50
2018-01-02T15:58:00.212Z,69.67
2018-01-02T16:00:31.229Z,89.33
2018-01-02T16:03:00.228Z,104.37
2018-01-02T16:05:33.076Z,95.90
2018-01-02T16:08:02.079Z,75.97
2018-01-02T16:10:30.997Z,65.77
2018-01-02T16:13:00.811Z,68.10
2018-01-02T16:15:29.818Z,57.60
2018-01-02T16:17:58.861Z,46.40
2018-01-02T16:20:28.381Z,44.03
2018-01-02T16:22:57.370Z,39.83
2018-01-02T16:25:33.005Z,37.53
2018-01-02T16:28:01.939Z,37.13
2018-01-02T16:30:31.048Z,44.07
2018-01-02T16:33:00.052Z,45.07
2018-01-02T16:35:29.034Z,29.60
2018-01-02T16:37:59.106Z,34.70
2018-01-02T16:40:30.071Z,37.73
2018-01-02T16:42:59.091Z,45.83
2018-01-02T16:45:29.418Z,47.20
2018-01-02T16:47:58.704Z,49.07
2018-01-02T16:50:27.661Z,64.43
2018-01-02T16:52:57.614Z,65.60
2018-01-02T16:55:27.528Z,69.23
2018-01-02T16:57:56.568Z,63.60
2018-01-02T17:00:25.424Z,55.03
2018-01-02T17:02:55.226Z,54.27
2018-01-02T17:05:24.085Z,49.50
2018-01-02T17:07:52.907Z,58.07
2018-01-02T17:10:24.183Z,44.90
2018-01-02T17:12:53.031Z,40.03
2018-01-02T17:15:21.904Z,54.17
2018-01-02T17:17:50.772Z,52.90
2018-01-02T17:20:19.657Z,51.07
2018-01-02T17:22:48.493Z,51.47
2018-01-02T17:25:17.465Z,56.50
2018-01-02T17:27:46.289Z,57.93
2018-01-02T17:30:15.157Z,59.83
2018-01-02T17:32:44.861Z,57.63
2018-01-02T17:35:13.741Z,67.63
2018-01-02T17:37:42.572Z,49.10
2018-01-02T17:40:11.425Z,46.63
2018-01-02T17:42:40.347Z,54.87
2018-01-02T17:45:09.346Z,54.00
2018-01-02T17:47:38.205Z,74.00
2018-01-02T17:50:07.059Z,99.63
2018-01-02T17:52:35.888Z,146.10
2018-01-02T17:55:05.737Z,185.53
2018-01-02T17:57:34.599Z,226.37
2018-01-02T18:00:03.494Z,182.37
2018-01-02T18:02:32.510Z,118.73
2018-01-02T18:05:01.394Z,87.77
2018-01-02T18:07:30.260Z,82.87
2018-01-02T18:10:00.911Z,89.83
2018-01-02T18:12:29.875Z,90.40
2018-01-02T18:14:58.716Z,97.13
2018-01-02T18:17:29.499Z,82.43
2018-01-02T18:19:58.317Z,71.33
2018-01-02T18:22:27.143Z,63.33
2018-01-02T18:25:00.729Z,41.57
2018-01-02T18:27:29.591Z,41.23
2018-01-02T18:29:58.444Z,38.10
2018-01-02T18:32:29.010Z,41.23
2018-01-02T18:34:57.838Z,37.80
2018-01-02T18:37:26.688Z,35.27
2018-01-02T18:39:56.496Z,36.90
2018-01-02T18:42:25.379Z,33.47
2018-01-02T18:44:54.220Z,35.50
2018-01-02T18:47:23.184Z,37.03
2018-01-02T18:49:52.016Z,31.93
2018-01-02T18:52:20.845Z,43.90
2018-01-02T18:54:49.684Z,32.17
2018-01-02T18:57:18.524Z,33.20
2018-01-02T18:59:47.453Z,38.60
2018-01-02T19:02:17.203Z,31.30
2018-01-02T19:04:46.044Z,41.20
2018-01-02T19:07:14.955Z,48.43
2018-01-02T19:09:44.722Z,46.77
2018-01-02T19:12:13.539Z,69.13
2018-01-02T19:14:42.418Z,75.33
2018-01-02T19:17:11.322Z,91.90
2018-01-02T19:19:40.242Z,90.50
2018-01-02T19:22:09.100Z,83.90
2018-01-02T19:24:38.112Z,82.60
2018-01-02T19:27:06.943Z,73.50
2018-01-02T19:29:35.915Z,74.80
2018-01-02T19:32:08.225Z,53.63
2018-01-02T19:34:37.055Z,58.50
2018-01-02T19:37:05.874Z,51.77
2018-01-02T19:39:35.614Z,43.17
2018-01-02T19:42:04.463Z,41.43
2018-01-02T19:44:33.313Z,38.63
2018-01-02T19:47:02.242Z,31.07
2018-01-02T19:49:31.058Z,28.40
2018-01-02T19:51:59.924Z,29.90
2018-01-02T19:54:34.750Z,30.40
2018-01-02T19:57:03.673Z,25.47
2018-01-02T19:59:32.477Z,26.80
2018-01-02T20:02:02.318Z,29.53
2018-01-02T20:04:31.157Z,36.83
2018-01-02T20:07:00.033Z,29.27
2018-01-02T20:09:34.594Z,30.90
2018-01-02T20:12:03.503Z,31.80
2018-01-02T20:14:32.330Z,27.97
2018-01-02T20:17:02.009Z,31.50
2018-01-02T20:19:30.829Z,31.50
2018-01-02T20:21:59.703Z,40.40
2018-01-02T20:24:29.385Z,31.80
2018-01-02T20:26:58.300Z,40.20
2018-01-02T20:29:30.433Z,34.97
2018-01-02T20:31:59.261Z,36.50
2018-01-02T20:34:28.097Z,39.70
2018-01-02T20:36:57.698Z,30.30
2018-01-02T20:39:30.015Z,37.63
2018-01-02T20:41:58.897Z,27.80
2018-01-02T20:51:21.562Z,26.13
2018-01-02T20:53:50.424Z,19.63
2018-01-02T20:56:19.281Z,19.03
2018-01-02T20:59:02.995Z,17.43
2018-01-02T21:01:31.814Z,21.20
2018-01-02T21:04:00.691Z,19.20
2018-01-02T21:06:29.589Z,20.50
2018-01-02T21:08:59.473Z,19.30
2018-01-02T21:11:28.478Z,19.30
2018-01-02T21:13:57.327Z,23.30
2018-01-02T21:16:26.172Z,24.50
2018-01-02T21:18:55.118Z,36.80
2018-01-02T21:21:23.961Z,34.10
2018-01-02T21:23:52.789Z,35.10
2018-01-02T21:26:21.678Z,27.87
2018-01-02T21:28:50.533Z,29.30
2018-01-02T21:31:19.371Z,27.20
2018-01-02T21:33:48.175Z,27.87
2018-01-02T21:36:17.968Z,29.00
2018-01-02T21:38:46.867Z,32.50
2018-01-02T21:41:15.667Z,42.33
2018-01-02T21:43:44.513Z,40.30
2018-01-02T21:46:17.370Z,45.60
2018-01-02T21:48:46.225Z,50.70
2018-01-02T21:51:15.081Z,48.27
2018-01-02T21:53:44.165Z,48.87
2018-01-02T21:56:13.011Z,46.80
2018-01-02T21:58:41.844Z,51.43
2018-01-02T22:01:10.638Z,35.37
2018-01-02T22:03:47.512Z,29.83
2018-01-02T22:06:16.423Z,23.80
2018-01-02T22:08:45.253Z,17.83
2018-01-02T22:11:16.638Z,22.40
2018-01-02T22:13:49.423Z,17.87
2018-01-02T22:16:18.296Z,17.27
2018-01-02T22:18:47.118Z,12.00
2018-01-02T22:21:15.947Z,10.20
2018-01-02T22:23:46.514Z,7.33
2018-01-02T22:26:15.351Z,10.50
2018-01-02T22:28:44.169Z,6.90
2018-01-02T22:31:14.732Z,11.07
2018-01-02T22:33:43.580Z,6.50
2018-01-02T22:36:12.413Z,7.77
2018-01-02T22:41:16.026Z,6.27
2018-01-02T22:43:44.856Z,6.03
2018-01-02T22:46:13.696Z,6.13
2018-01-02T22:48:42.501Z,5.13
2018-01-02T22:51:11.466Z,6.10
2018-01-02T22:53:40.296Z,4.67
2018-01-02T22:56:09.097Z,4.17
2018-01-02T22:58:37.930Z,6.63
2018-01-02T23:03:40.750Z,5.00
2018-01-02T23:06:09.573Z,4.90
2018-01-02T23:08:38.399Z,4.63
2018-01-02T23:11:08.174Z,6.40
2018-01-02T23:13:37.037Z,4.50
2018-01-02T23:16:05.843Z,6.00
2018-01-02T23:18:40.958Z,7.17
2018-01-02T23:21:09.761Z,4.30
2018-01-02T23:23:38.594Z,4.97
2018-01-02T23:26:08.352Z,5.70
2018-01-02T23:28:37.166Z,4.50
2018-01-02T23:31:06.051Z,6.20
2018-01-02T23:33:35.681Z,3.90
2018-01-02T23:36:04.649Z,6.17
2018-01-02T23:38:33.528Z,6.80
2018-01-02T23:41:02.346Z,6.70
2018-01-02T23:43:31.172Z,4.43
2018-01-02T23:46:00.093Z,5.30
2018-01-02T23:48:29.796Z,4.07
2018-01-02T23:50:58.576Z,4.97
2018-01-02T23:53:27.366Z,5.50
2018-01-02T23:56:04.826Z,4.60
2018-01-02T23:58:33.658Z,5.20
